Terminal Aerodrome Forecast
Issued by NWS

Home | Current Version | Previous Version | Text Only | Print | Product List | Glossary On
Versions: 1 2 3 4 5 6 7 8 9 10 11 12 13
000
FTUS41 KBTV 201100 RRA
TAFSLK
TAF
KSLK 201141Z 2012/2112 22012G20KT P6SM OVC015
     FM201600 21015G25KT P6SM BKN040
     FM210100 22008KT P6SM OVC050
     FM210600 21008KT 4SM BR OVC025=

USA.gov is the U.S. government's official web portal to all federal, state and local government web resources and services.